createdAt,value
2023-02-18T00:00:28.767Z,4.2
2023-02-18T00:01:37.311Z,4.3
2023-02-18T00:02:45.710Z,4.3
2023-02-18T00:03:54.848Z,4.3
2023-02-18T00:05:03.336Z,4.1
2023-02-18T00:06:11.671Z,4.1
2023-02-18T00:07:20.048Z,4.1
2023-02-18T00:08:28.607Z,4.5
2023-02-18T00:09:36.954Z,4.5
2023-02-18T00:10:45.325Z,4.5
2023-02-18T00:11:53.859Z,4.4
2023-02-18T00:13:02.201Z,4.4
2023-02-18T00:14:10.548Z,4.4
2023-02-18T00:15:19.104Z,4.8
2023-02-18T00:16:27.432Z,4.8
2023-02-18T00:17:35.783Z,4.8
2023-02-18T00:18:44.328Z,4.7
2023-02-18T00:19:52.667Z,4.7
2023-02-18T00:21:01.034Z,4.7
2023-02-18T00:22:09.595Z,4.7
2023-02-18T00:23:17.968Z,4.7
2023-02-18T00:24:26.297Z,4.7
2023-02-18T00:25:34.847Z,4.8
2023-02-18T00:26:43.202Z,4.8
2023-02-18T00:27:51.560Z,4.8
2023-02-18T00:29:00.120Z,4.4
2023-02-18T00:30:08.501Z,4.4
2023-02-18T00:31:16.906Z,4.4
2023-02-18T00:32:25.378Z,4.4
2023-02-18T00:33:33.706Z,4.4
2023-02-18T00:34:42.057Z,4.4
2023-02-18T00:35:50.613Z,4.7
2023-02-18T00:36:58.998Z,4.7
2023-02-18T00:38:08.267Z,4.7
2023-02-18T00:39:16.863Z,4.5
2023-02-18T00:40:25.197Z,4.5
2023-02-18T00:41:33.539Z,4.5
2023-02-18T00:42:42.090Z,4.4
2023-02-18T00:43:50.445Z,4.4
2023-02-18T00:44:58.783Z,4.4
2023-02-18T00:46:07.665Z,4.5
2023-02-18T00:47:15.697Z,4.5
2023-02-18T00:48:24.056Z,4.5
2023-02-18T00:49:32.657Z,4.6
2023-02-18T00:50:41.010Z,4.6
2023-02-18T00:51:49.376Z,4.6
2023-02-18T00:52:57.920Z,5.3
2023-02-18T00:54:06.279Z,5.3
2023-02-18T00:55:14.651Z,5.3
2023-02-18T00:56:23.181Z,4.6
2023-02-18T00:57:31.530Z,4.6
2023-02-18T00:58:39.846Z,4.6
2023-02-18T00:59:48.413Z,4.9
2023-02-18T01:00:56.800Z,4.9
2023-02-18T01:02:05.140Z,4.9
2023-02-18T01:03:13.723Z,4.9
2023-02-18T01:04:22.100Z,4.9
2023-02-18T01:05:30.423Z,4.9
2023-02-18T01:06:39.000Z,4.7
2023-02-18T01:07:47.331Z,4.7
2023-02-18T01:08:55.695Z,4.7
2023-02-18T01:10:04.247Z,5
2023-02-18T01:11:12.625Z,5
2023-02-18T01:12:20.964Z,5
2023-02-18T01:13:29.518Z,4.9
2023-02-18T01:14:37.856Z,4.9
2023-02-18T01:15:46.256Z,4.9
2023-02-18T01:16:54.766Z,4.8
2023-02-18T01:18:03.126Z,4.8
2023-02-18T01:19:11.472Z,4.8
2023-02-18T01:20:20.042Z,5.4
2023-02-18T01:21:28.394Z,5.4
2023-02-18T01:22:36.780Z,5.4
2023-02-18T01:23:45.338Z,5.2
2023-02-18T01:24:53.688Z,5.2
2023-02-18T01:26:02.064Z,5.2
2023-02-18T01:27:10.620Z,5.6
2023-02-18T01:28:18.936Z,5.6
2023-02-18T01:29:27.292Z,5.6
2023-02-18T01:30:35.922Z,5.4
2023-02-18T01:31:44.371Z,5.4
2023-02-18T01:32:52.562Z,5.4
2023-02-18T01:34:01.129Z,5.5
2023-02-18T01:35:09.463Z,5.5
2023-02-18T01:36:17.836Z,5.5
2023-02-18T01:37:26.360Z,5.3
2023-02-18T01:38:34.696Z,5.3
2023-02-18T01:39:43.042Z,5.3
2023-02-18T01:40:51.611Z,5.4
2023-02-18T01:41:59.989Z,5.4
2023-02-18T01:43:08.444Z,5.4
2023-02-18T01:44:16.985Z,5.5
2023-02-18T01:45:25.343Z,5.5
2023-02-18T01:46:33.727Z,5.5
2023-02-18T01:47:42.260Z,4.7
2023-02-18T01:48:50.633Z,4.7
2023-02-18T01:49:58.963Z,4.7
2023-02-18T01:51:07.545Z,5.2
2023-02-18T01:52:15.918Z,5.2
2023-02-18T01:53:24.228Z,5.2
2023-02-18T01:54:32.779Z,5.3
2023-02-18T01:55:41.165Z,5.3
2023-02-18T01:56:49.517Z,5.3
2023-02-18T01:57:58.039Z,5.4
2023-02-18T01:59:06.531Z,5.4
2023-02-18T02:00:14.742Z,5.4
2023-02-18T02:01:23.310Z,5
2023-02-18T02:02:31.652Z,5
2023-02-18T02:03:40.021Z,5
2023-02-18T02:04:48.574Z,5.5
2023-02-18T02:05:56.939Z,5.5
2023-02-18T02:07:05.288Z,5.5
2023-02-18T02:08:13.839Z,5.6
2023-02-18T02:09:22.177Z,5.6
2023-02-18T02:10:30.514Z,5.6
2023-02-18T02:11:39.090Z,5.3
2023-02-18T02:12:47.448Z,5.3
2023-02-18T02:13:55.786Z,5.3
2023-02-18T02:15:04.356Z,5.1
2023-02-18T02:16:12.724Z,5.1
2023-02-18T02:17:21.091Z,5.1
2023-02-18T02:18:29.622Z,5
2023-02-18T02:19:37.995Z,5
2023-02-18T02:20:46.374Z,5
2023-02-18T02:21:54.927Z,5.2
2023-02-18T02:23:03.257Z,5.2
2023-02-18T02:24:11.591Z,5.2
2023-02-18T02:25:20.166Z,5.1
2023-02-18T02:26:28.524Z,5.1
2023-02-18T02:27:36.886Z,5.1
2023-02-18T02:28:45.447Z,5.2
2023-02-18T02:29:53.813Z,5.2
2023-02-18T02:31:02.252Z,5.2
2023-02-18T02:32:10.714Z,4.6
2023-02-18T02:33:19.072Z,4.6
2023-02-18T02:34:27.430Z,4.6
2023-02-18T02:35:35.971Z,4.9
2023-02-18T02:36:44.326Z,4.9
2023-02-18T02:37:52.679Z,4.9
2023-02-18T02:39:01.250Z,5.1
2023-02-18T02:40:09.600Z,5.1
2023-02-18T02:41:17.978Z,5.1
2023-02-18T02:42:26.547Z,4.5
2023-02-18T02:43:34.895Z,4.5
2023-02-18T02:44:43.279Z,4.5
2023-02-18T02:45:51.893Z,5
2023-02-18T02:47:00.217Z,5
2023-02-18T02:48:08.573Z,5
2023-02-18T02:49:17.140Z,5.3
2023-02-18T02:50:25.473Z,5.3
2023-02-18T02:51:33.853Z,5.3
2023-02-18T02:52:42.398Z,4.6
2023-02-18T02:53:50.741Z,4.6
2023-02-18T02:54:59.125Z,4.6
2023-02-18T02:56:07.953Z,4.7
2023-02-18T02:57:16.017Z,4.7
2023-02-18T02:58:24.377Z,4.7
2023-02-18T02:59:32.960Z,4.6
2023-02-18T03:00:41.354Z,4.6
2023-02-18T03:01:49.653Z,4.6
2023-02-18T03:02:58.291Z,4.5
2023-02-18T03:04:06.575Z,4.5
2023-02-18T03:05:14.927Z,4.5
2023-02-18T03:06:23.497Z,3.9
2023-02-18T03:07:33.556Z,3.9
2023-02-18T03:08:40.187Z,3.9
2023-02-18T03:09:48.739Z,4
2023-02-18T03:10:57.180Z,4
2023-02-18T03:12:05.532Z,4
2023-02-18T03:13:14.068Z,4
2023-02-18T03:14:22.403Z,4
2023-02-18T03:15:30.736Z,4
2023-02-18T03:16:39.331Z,3.8
2023-02-18T03:17:47.671Z,3.8
2023-02-18T03:18:56.047Z,3.8
2023-02-18T03:20:04.603Z,4.2
2023-02-18T03:21:13.004Z,4.2
2023-02-18T03:22:21.341Z,4.2
2023-02-18T03:23:29.900Z,3.8
2023-02-18T03:24:38.247Z,3.8
2023-02-18T03:25:46.613Z,3.8
2023-02-18T03:26:55.166Z,3.6
2023-02-18T03:28:03.527Z,3.6
2023-02-18T03:29:11.899Z,3.6
2023-02-18T03:30:20.461Z,3.7
2023-02-18T03:31:28.903Z,3.7
2023-02-18T03:32:37.172Z,3.7
2023-02-18T03:33:45.719Z,3.7
2023-02-18T03:34:54.090Z,3.7
2023-02-18T03:36:02.414Z,3.7
2023-02-18T03:37:10.990Z,3.6
2023-02-18T03:38:19.335Z,3.6
2023-02-18T03:39:27.679Z,3.6
2023-02-18T03:40:36.224Z,4
2023-02-18T03:41:44.584Z,4
2023-02-18T03:42:52.945Z,4
2023-02-18T03:44:01.520Z,3.9
2023-02-18T03:45:09.872Z,3.9
2023-02-18T03:46:18.270Z,3.9
2023-02-18T03:47:26.778Z,4
2023-02-18T03:48:35.160Z,4
2023-02-18T03:49:43.508Z,4
2023-02-18T03:50:52.095Z,4.1
2023-02-18T03:52:00.418Z,4.1
2023-02-18T03:53:08.777Z,4.1
2023-02-18T03:54:17.321Z,4.2
2023-02-18T03:55:25.684Z,4.2
2023-02-18T03:56:34.084Z,4.2
2023-02-18T03:57:42.640Z,4.3
2023-02-18T03:58:50.990Z,4.3
2023-02-18T03:59:59.353Z,4.3
2023-02-18T04:01:07.975Z,4
2023-02-18T04:02:16.346Z,4
2023-02-18T04:03:24.674Z,4
2023-02-18T04:04:33.300Z,4.3
2023-02-18T04:05:41.617Z,4.3
2023-02-18T04:06:49.990Z,4.3
2023-02-18T04:07:58.542Z,4.2
2023-02-18T04:09:06.893Z,4.2
2023-02-18T04:10:15.244Z,4.2
2023-02-18T04:11:23.811Z,4.1
2023-02-18T04:12:32.177Z,4.1
2023-02-18T04:13:40.498Z,4.1
2023-02-18T04:14:49.037Z,4.2
2023-02-18T04:15:57.418Z,4.2
2023-02-18T04:17:05.769Z,4.2
2023-02-18T04:18:14.324Z,4
2023-02-18T04:19:22.672Z,4
2023-02-18T04:20:31.020Z,4
2023-02-18T04:21:39.572Z,4.6
2023-02-18T04:22:47.961Z,4.6
2023-02-18T04:23:56.310Z,4.6
2023-02-18T04:25:04.839Z,4.2
2023-02-18T04:26:13.210Z,4.2
2023-02-18T04:27:21.544Z,4.2
2023-02-18T04:28:30.090Z,4.5
2023-02-18T04:29:38.440Z,4.5
2023-02-18T04:30:46.924Z,4.5
2023-02-18T04:31:55.379Z,4.3
2023-02-18T04:33:03.691Z,4.3
2023-02-18T04:34:12.080Z,4.3
2023-02-18T04:35:20.608Z,4.2
2023-02-18T04:36:28.962Z,4.2
2023-02-18T04:37:37.306Z,4.2
2023-02-18T04:38:45.887Z,4.1
2023-02-18T04:39:54.237Z,4.1
2023-02-18T04:41:02.603Z,4.1
2023-02-18T04:42:11.151Z,3.7
2023-02-18T04:43:19.479Z,3.7
2023-02-18T04:44:27.850Z,3.7
2023-02-18T04:45:36.384Z,4.1
2023-02-18T04:46:44.746Z,4.1
2023-02-18T04:47:53.103Z,4.1
2023-02-18T04:49:01.648Z,3.7
2023-02-18T04:50:10.019Z,3.7
2023-02-18T04:51:18.400Z,3.7
2023-02-18T04:52:26.950Z,3.6
2023-02-18T04:53:35.308Z,3.6
2023-02-18T04:54:44.093Z,3.6
2023-02-18T04:55:52.226Z,3.3
2023-02-18T04:57:00.557Z,3.3
2023-02-18T04:58:08.915Z,3.3
2023-02-18T04:59:17.486Z,3.5
2023-02-18T05:00:25.842Z,3.5
2023-02-18T05:01:34.229Z,3.5
2023-02-18T05:02:42.775Z,3.2
2023-02-18T05:03:51.176Z,3.2
2023-02-18T05:04:59.490Z,3.2
2023-02-18T05:06:08.375Z,3.6
2023-02-18T05:07:16.429Z,3.6
2023-02-18T05:08:24.795Z,3.6
2023-02-18T05:09:33.366Z,3.6
2023-02-18T05:10:41.747Z,3.6
2023-02-18T05:11:50.071Z,3.6
2023-02-18T05:12:58.619Z,4.3
2023-02-18T05:14:06.959Z,4.3
2023-02-18T05:15:15.336Z,4.3
2023-02-18T05:16:23.898Z,3.8
2023-02-18T05:17:32.254Z,3.8
2023-02-18T05:18:40.606Z,3.8
2023-02-18T05:19:49.188Z,4.3
2023-02-18T05:20:57.558Z,4.3
2023-02-18T05:22:05.920Z,4.3
2023-02-18T05:23:14.466Z,4
2023-02-18T05:24:22.852Z,4
2023-02-18T05:25:31.194Z,4
2023-02-18T05:26:39.805Z,4.3
2023-02-18T05:27:48.128Z,4.3
2023-02-18T05:28:56.477Z,4.3
2023-02-18T05:30:05.080Z,4.6
2023-02-18T05:31:13.491Z,4.6
2023-02-18T05:32:21.721Z,4.6
2023-02-18T05:33:30.271Z,4.4
2023-02-18T05:34:38.604Z,4.4
2023-02-18T05:35:46.953Z,4.4
2023-02-18T05:36:55.537Z,4.3
2023-02-18T05:38:03.868Z,4.3
2023-02-18T05:39:12.271Z,4.3
2023-02-18T05:40:20.816Z,5
2023-02-18T05:41:29.156Z,5
2023-02-18T05:42:37.516Z,5
2023-02-18T05:43:46.039Z,4.2
2023-02-18T05:44:54.408Z,4.2
2023-02-18T05:46:02.800Z,4.2
2023-02-18T05:47:11.651Z,4.8
2023-02-18T05:48:19.633Z,4.8
2023-02-18T05:49:27.943Z,4.8
2023-02-18T05:50:36.479Z,9.6
2023-02-18T05:51:44.857Z,9.6
2023-02-18T05:52:53.121Z,9.6
2023-02-18T05:54:01.657Z,4.5
2023-02-18T05:55:09.988Z,4.5
2023-02-18T05:56:18.301Z,4.5
2023-02-18T05:57:26.934Z,5.2
2023-02-18T05:58:35.268Z,5.2
2023-02-18T05:59:43.564Z,5.2
2023-02-18T06:00:52.102Z,4.6
2023-02-18T06:02:00.422Z,4.6
2023-02-18T06:03:08.738Z,4.6
2023-02-18T06:04:17.265Z,6.6
2023-02-18T06:05:25.636Z,6.6
2023-02-18T06:06:33.917Z,6.6
2023-02-18T06:07:42.466Z,4.8
2023-02-18T06:08:50.797Z,4.8
2023-02-18T06:09:59.106Z,4.8
2023-02-18T06:11:07.629Z,10.5
2023-02-18T06:12:15.956Z,10.5
2023-02-18T06:13:24.280Z,10.5
2023-02-18T06:14:32.836Z,5.3
2023-02-18T06:15:41.127Z,5.3
2023-02-18T06:16:49.477Z,5.3
2023-02-18T06:17:57.987Z,9
2023-02-18T06:19:06.332Z,9
2023-02-18T06:20:14.638Z,9
2023-02-18T06:21:23.180Z,9.7
2023-02-18T06:22:31.488Z,9.7
2023-02-18T06:23:39.804Z,9.7
2023-02-18T06:24:48.369Z,5.9
2023-02-18T06:25:56.684Z,5.9
2023-02-18T06:27:05.061Z,5.9
2023-02-18T06:28:13.597Z,4.2
2023-02-18T06:29:21.911Z,4.2
2023-02-18T06:30:30.305Z,4.2
2023-02-18T06:31:38.835Z,4.7
2023-02-18T06:32:47.100Z,4.7
2023-02-18T06:33:55.429Z,4.7
2023-02-18T06:35:03.956Z,3.8
2023-02-18T06:36:12.415Z,3.8
2023-02-18T06:37:20.634Z,3.8
2023-02-18T06:38:29.232Z,4
2023-02-18T06:39:37.555Z,4
2023-02-18T06:40:45.875Z,4
2023-02-18T06:41:54.435Z,7.6
2023-02-18T06:43:02.774Z,7.6
2023-02-18T06:44:11.108Z,7.6
2023-02-18T06:45:19.637Z,5.1
2023-02-18T06:46:28.001Z,5.1
2023-02-18T06:47:36.312Z,5.1
2023-02-18T06:48:44.832Z,4.1
2023-02-18T06:49:53.171Z,4.1
2023-02-18T06:51:01.487Z,4.1
2023-02-18T06:52:10.025Z,3.3
2023-02-18T06:53:18.339Z,3.3
2023-02-18T06:54:26.681Z,3.3
2023-02-18T06:55:35.185Z,2.8
2023-02-18T06:56:43.519Z,2.8
2023-02-18T06:57:51.845Z,2.8
2023-02-18T06:59:00.359Z,2.5
2023-02-18T07:00:08.742Z,2.5
2023-02-18T07:01:17.105Z,2.5
2023-02-18T07:02:25.598Z,2.9
2023-02-18T07:03:33.949Z,2.9
2023-02-18T07:04:42.214Z,2.9
2023-02-18T07:05:50.758Z,2.9
2023-02-18T07:06:59.099Z,2.9
2023-02-18T07:08:07.405Z,2.9
2023-02-18T07:09:15.960Z,2.7
2023-02-18T07:10:24.290Z,2.7
2023-02-18T07:11:32.634Z,2.7
2023-02-18T07:12:41.199Z,2.4
2023-02-18T07:13:49.533Z,2.4
2023-02-18T07:14:57.852Z,2.4
2023-02-18T07:16:06.739Z,2.1
2023-02-18T07:17:14.724Z,2.1
2023-02-18T07:18:23.063Z,2.1
2023-02-18T07:19:31.551Z,5.1
2023-02-18T07:20:39.856Z,5.1
2023-02-18T07:21:48.170Z,5.1
2023-02-18T07:22:56.719Z,3.7
2023-02-18T07:24:05.040Z,3.7
2023-02-18T07:25:13.357Z,3.7
2023-02-18T07:26:21.870Z,2.2
2023-02-18T07:27:30.204Z,2.2
2023-02-18T07:28:38.530Z,2.2
2023-02-18T07:29:47.051Z,1.6
2023-02-18T07:30:55.409Z,1.6
2023-02-18T07:32:03.748Z,1.6
2023-02-18T07:33:12.245Z,1.7
2023-02-18T07:34:20.696Z,1.7
2023-02-18T07:35:28.895Z,1.7
2023-02-18T07:36:37.447Z,3
2023-02-18T07:37:45.785Z,3
2023-02-18T07:38:54.087Z,3
2023-02-18T07:40:02.622Z,1.7
2023-02-18T07:41:10.930Z,1.7
2023-02-18T07:42:19.253Z,1.7
2023-02-18T07:43:27.811Z,1.7
2023-02-18T07:44:36.126Z,1.7
2023-02-18T07:45:44.465Z,1.7
2023-02-18T07:46:53.000Z,2
2023-02-18T07:48:01.412Z,2
2023-02-18T07:49:09.792Z,2
2023-02-18T07:50:18.368Z,1.3
2023-02-18T07:51:26.668Z,1.3
2023-02-18T07:52:34.987Z,1.3
2023-02-18T07:53:43.538Z,1.8
2023-02-18T07:54:51.849Z,1.8
2023-02-18T07:56:00.164Z,1.8
2023-02-18T07:57:08.779Z,1.3
2023-02-18T07:58:17.038Z,1.3
2023-02-18T07:59:25.403Z,1.3
2023-02-18T08:00:33.996Z,1.3
2023-02-18T08:01:45.021Z,1.3
2023-02-18T08:02:52.072Z,1.3
2023-02-18T08:04:00.687Z,1.1
2023-02-18T08:05:09.063Z,1.1
2023-02-18T08:06:17.440Z,1.1
2023-02-18T08:07:25.943Z,1.1
2023-02-18T08:08:36.560Z,1.1
2023-02-18T08:09:42.613Z,1.1
2023-02-18T08:10:51.155Z,1.3
2023-02-18T08:11:59.492Z,1.3
2023-02-18T08:13:07.822Z,1.3
2023-02-18T08:14:16.381Z,0.9
2023-02-18T08:15:24.701Z,0.9
2023-02-18T08:16:33.074Z,0.9
2023-02-18T08:17:41.570Z,1.2
2023-02-18T08:18:49.910Z,1.2
2023-02-18T08:19:58.221Z,1.2
2023-02-18T08:21:06.770Z,3.4
2023-02-18T08:22:15.171Z,3.4
2023-02-18T08:23:23.474Z,3.4
2023-02-18T08:24:31.992Z,1.2
2023-02-18T08:25:40.314Z,1.2
2023-02-18T08:26:59.703Z,1.2
2023-02-18T08:27:57.248Z,1.6
2023-02-18T08:29:05.590Z,1.6
2023-02-18T08:30:13.973Z,1.6
2023-02-18T08:31:22.644Z,0.9
2023-02-18T08:32:30.821Z,0.9
2023-02-18T08:33:39.162Z,0.9
2023-02-18T08:34:47.713Z,0.7
2023-02-18T08:35:56.052Z,0.7
2023-02-18T08:37:04.379Z,0.7
2023-02-18T08:38:12.936Z,0.9
2023-02-18T08:39:21.243Z,0.9
2023-02-18T08:40:29.608Z,0.9
2023-02-18T08:41:38.163Z,0.9
2023-02-18T08:42:46.496Z,0.9
2023-02-18T08:43:54.837Z,0.9
2023-02-18T08:45:03.401Z,3.5
2023-02-18T08:46:15.709Z,3.5
2023-02-18T08:48:13.578Z,3.5
2023-02-18T08:48:28.594Z,1.1
2023-02-18T08:49:36.958Z,1.1
2023-02-18T08:50:45.310Z,1.1
2023-02-18T08:51:53.908Z,2.3
2023-02-18T08:53:02.202Z,2.3
2023-02-18T08:54:10.601Z,2.3
2023-02-18T08:55:19.104Z,1.5
2023-02-18T08:56:27.457Z,1.5
2023-02-18T08:57:35.812Z,1.5
2023-02-18T08:58:44.368Z,2.9
2023-02-18T08:59:52.744Z,2.9
2023-02-18T09:01:01.146Z,2.9
2023-02-18T09:02:09.635Z,5.2
2023-02-18T09:03:17.986Z,5.2
2023-02-18T09:04:26.326Z,5.2
2023-02-18T09:05:34.850Z,3.4
2023-02-18T09:06:43.167Z,3.4
2023-02-18T09:07:51.518Z,3.4
2023-02-18T09:09:00.071Z,8.6
2023-02-18T09:10:08.422Z,8.6
2023-02-18T09:11:16.778Z,8.6
2023-02-18T09:12:25.307Z,6.1
2023-02-18T09:13:33.650Z,6.1
2023-02-18T09:14:41.977Z,6.1
2023-02-18T09:15:50.548Z,4.4
2023-02-18T09:16:58.831Z,4.4
2023-02-18T09:18:07.210Z,4.4
2023-02-18T09:19:15.755Z,1.7
2023-02-18T09:20:24.099Z,1.7
2023-02-18T09:21:32.403Z,1.7
2023-02-18T09:22:40.925Z,1.3
2023-02-18T09:23:49.252Z,1.3
2023-02-18T09:24:57.590Z,1.3
2023-02-18T09:26:06.197Z,2.4
2023-02-18T09:27:14.521Z,2.4
2023-02-18T09:28:22.948Z,2.4
2023-02-18T09:29:31.490Z,5.8
2023-02-18T09:30:39.924Z,5.8
2023-02-18T09:31:48.310Z,5.8
2023-02-18T09:32:56.743Z,2
2023-02-18T09:34:05.114Z,2
2023-02-18T09:35:13.467Z,2
2023-02-18T09:36:22.012Z,3.8
2023-02-18T09:37:30.394Z,3.8
2023-02-18T09:38:38.763Z,3.8
2023-02-18T09:39:47.328Z,4.3
2023-02-18T09:40:55.698Z,4.3
2023-02-18T09:42:04.071Z,4.3
2023-02-18T09:43:12.612Z,3.4
2023-02-18T09:44:20.962Z,3.4
2023-02-18T09:45:29.310Z,3.4
2023-02-18T09:46:37.879Z,3.9
2023-02-18T09:47:46.231Z,3.9
2023-02-18T09:48:54.600Z,3.9
2023-02-18T09:50:03.137Z,3.9
2023-02-18T09:51:11.492Z,3.9
2023-02-18T09:52:19.839Z,3.9
2023-02-18T09:53:28.393Z,4.6
2023-02-18T09:54:36.744Z,4.6
2023-02-18T09:55:45.120Z,4.6
2023-02-18T09:56:53.664Z,6.7
2023-02-18T09:58:02.038Z,6.7
2023-02-18T09:59:10.376Z,6.7
2023-02-18T10:00:18.913Z,5.1
2023-02-18T10:01:27.269Z,5.1
2023-02-18T10:02:35.607Z,5.1
2023-02-18T10:03:44.161Z,5.3
2023-02-18T10:04:52.498Z,5.3
2023-02-18T10:06:00.838Z,5.3
2023-02-18T10:07:09.412Z,5.8
2023-02-18T10:08:17.751Z,5.8
2023-02-18T10:09:26.110Z,5.8
2023-02-18T10:10:34.669Z,6.5
2023-02-18T10:11:42.995Z,6.5
2023-02-18T10:12:51.329Z,6.5
2023-02-18T10:13:59.899Z,5.8
2023-02-18T10:15:08.207Z,5.8
2023-02-18T10:16:16.652Z,5.8
2023-02-18T10:17:25.088Z,6.8
2023-02-18T10:18:33.437Z,6.8
2023-02-18T10:19:41.778Z,6.8
2023-02-18T10:20:50.312Z,3.9
2023-02-18T10:21:58.656Z,3.9
2023-02-18T10:23:07.055Z,3.9
2023-02-18T10:24:15.629Z,4.5
2023-02-18T10:25:24.013Z,4.5
2023-02-18T10:26:32.353Z,4.5
2023-02-18T10:27:40.885Z,4
2023-02-18T10:28:49.238Z,4
2023-02-18T10:29:57.657Z,4
2023-02-18T10:31:06.554Z,4.3
2023-02-18T10:32:14.739Z,4.3
2023-02-18T10:33:23.088Z,4.3
2023-02-18T10:34:31.672Z,4
2023-02-18T10:35:40.033Z,4
2023-02-18T10:36:48.374Z,4
2023-02-18T10:37:56.920Z,3.9
2023-02-18T10:39:05.281Z,3.9
2023-02-18T10:40:13.636Z,3.9
2023-02-18T10:41:22.177Z,4.5
2023-02-18T10:42:30.545Z,4.5
2023-02-18T10:43:38.882Z,4.5
2023-02-18T10:44:47.461Z,4.1
2023-02-18T10:45:55.835Z,4.1
2023-02-18T10:47:04.141Z,4.1
2023-02-18T10:48:12.703Z,4.7
2023-02-18T10:49:21.033Z,4.7
2023-02-18T10:50:29.383Z,4.7
2023-02-18T10:51:37.966Z,4.3
2023-02-18T10:52:46.304Z,4.3
2023-02-18T10:53:54.636Z,4.3
2023-02-18T10:55:03.212Z,3.8
2023-02-18T10:56:11.579Z,3.8
2023-02-18T10:57:19.886Z,3.8
2023-02-18T10:58:28.417Z,6.7
2023-02-18T10:59:36.744Z,6.7
2023-02-18T11:00:45.060Z,6.7
2023-02-18T11:01:53.690Z,7.2
2023-02-18T11:03:01.983Z,7.2
2023-02-18T11:04:10.339Z,7.2
2023-02-18T11:05:18.893Z,5.8
2023-02-18T11:06:27.286Z,5.8
2023-02-18T11:07:35.635Z,5.8
2023-02-18T11:08:44.191Z,7.2
2023-02-18T11:09:52.581Z,7.2
2023-02-18T11:11:00.906Z,7.2
2023-02-18T11:12:09.478Z,4.7
2023-02-18T11:13:17.848Z,4.7
2023-02-18T11:14:26.182Z,4.7
2023-02-18T11:15:34.763Z,5.5
2023-02-18T11:16:43.096Z,5.5
2023-02-18T11:17:51.495Z,5.5
2023-02-18T11:19:00.017Z,5.2
2023-02-18T11:20:08.418Z,5.2
2023-02-18T11:21:16.767Z,5.2
2023-02-18T11:22:25.329Z,4.2
2023-02-18T11:23:33.678Z,4.2
2023-02-18T11:24:42.062Z,4.2
2023-02-18T11:25:50.640Z,4.3
2023-02-18T11:26:58.983Z,4.3
2023-02-18T11:28:07.334Z,4.3
2023-02-18T11:29:15.918Z,4.6
2023-02-18T11:30:24.364Z,4.6
2023-02-18T11:31:32.631Z,4.6
2023-02-18T11:32:41.117Z,5.4
2023-02-18T11:33:49.449Z,5.4
2023-02-18T11:34:57.768Z,5.4
2023-02-18T11:36:06.287Z,4.4
2023-02-18T11:37:14.600Z,4.4
2023-02-18T11:38:22.921Z,4.4
2023-02-18T11:39:31.461Z,4.5
2023-02-18T11:40:39.784Z,4.5
2023-02-18T11:41:48.099Z,4.5
2023-02-18T11:42:56.633Z,4.9
2023-02-18T11:44:04.948Z,4.9
2023-02-18T11:45:13.293Z,4.9
2023-02-18T11:46:21.918Z,3.6
2023-02-18T11:47:30.221Z,3.6
2023-02-18T11:48:38.540Z,3.6
2023-02-18T11:49:47.151Z,3.5
2023-02-18T11:50:55.468Z,3.5
2023-02-18T11:52:03.820Z,3.5
2023-02-18T11:53:12.397Z,3.9
2023-02-18T11:54:20.725Z,3.9
2023-02-18T11:55:29.073Z,3.9
2023-02-18T11:56:37.643Z,2.7
2023-02-18T11:57:45.981Z,2.7
2023-02-18T11:58:54.376Z,2.7
2023-02-18T12:00:02.959Z,2.5
2023-02-18T12:01:11.295Z,2.5
2023-02-18T12:02:19.674Z,2.5
2023-02-18T12:03:28.200Z,2.5
2023-02-18T12:04:36.549Z,2.5
2023-02-18T12:05:44.944Z,2.5
2023-02-18T12:06:53.497Z,2.3
2023-02-18T12:08:01.853Z,2.3
2023-02-18T12:09:10.189Z,2.3
2023-02-18T12:10:18.795Z,2.2
2023-02-18T12:11:27.191Z,2.2
2023-02-18T12:12:35.571Z,2.2
2023-02-18T12:13:44.132Z,1.8
2023-02-18T12:14:52.492Z,1.8
2023-02-18T12:16:00.980Z,1.8
2023-02-18T12:17:09.543Z,2
2023-02-18T12:18:17.873Z,2
2023-02-18T12:19:26.209Z,2
2023-02-18T12:20:34.782Z,1.8
2023-02-18T12:21:43.176Z,1.8
2023-02-18T12:22:51.498Z,1.8
2023-02-18T12:24:00.096Z,1.7
2023-02-18T12:25:08.410Z,1.7
2023-02-18T12:26:16.774Z,1.7
2023-02-18T12:27:25.382Z,1.6
2023-02-18T12:28:33.693Z,1.6
2023-02-18T12:29:42.053Z,1.6
2023-02-18T12:30:50.663Z,1.7
2023-02-18T12:31:59.058Z,1.7
2023-02-18T12:33:07.409Z,1.7
2023-02-18T12:34:16.027Z,1.4
2023-02-18T12:35:24.383Z,1.4
2023-02-18T12:36:32.732Z,1.4
2023-02-18T12:37:41.359Z,1.4
2023-02-18T12:38:49.914Z,1.4
2023-02-18T12:39:58.332Z,1.4
2023-02-18T12:41:07.192Z,1.1
2023-02-18T12:42:15.337Z,1.1
2023-02-18T12:43:23.699Z,1.1
2023-02-18T12:44:32.280Z,1.2
2023-02-18T12:45:40.681Z,1.2
2023-02-18T12:46:49.015Z,1.2
2023-02-18T12:47:57.580Z,1.3
2023-02-18T12:49:05.943Z,1.3
2023-02-18T12:50:14.336Z,1.3
2023-02-18T12:51:22.938Z,1.1
2023-02-18T12:52:31.294Z,1.1
2023-02-18T12:53:39.705Z,1.1
2023-02-18T12:54:48.243Z,1.3
2023-02-18T12:55:56.602Z,1.3
2023-02-18T12:57:04.946Z,1.3
2023-02-18T12:58:13.526Z,1.3
2023-02-18T12:59:21.862Z,1.3
2023-02-18T13:00:31.098Z,1.3
2023-02-18T13:01:38.838Z,1.4
2023-02-18T13:02:47.220Z,1.4
2023-02-18T13:03:55.556Z,1.4
2023-02-18T13:05:04.174Z,1.9
2023-02-18T13:06:12.572Z,1.9
2023-02-18T13:07:20.925Z,1.9
2023-02-18T13:08:29.527Z,1.5
2023-02-18T13:09:37.916Z,1.5
2023-02-18T13:10:46.262Z,1.5
2023-02-18T13:11:54.858Z,1.6
2023-02-18T13:13:03.211Z,1.6
2023-02-18T13:14:11.617Z,1.6
2023-02-18T13:15:20.172Z,1.6
2023-02-18T13:16:28.664Z,1.6
2023-02-18T13:17:36.932Z,1.6
2023-02-18T13:18:45.521Z,1.5
2023-02-18T13:19:53.877Z,1.5
2023-02-18T13:21:03.474Z,1.5
2023-02-18T13:22:10.827Z,6.9
2023-02-18T13:23:19.236Z,6.9
2023-02-18T13:24:27.581Z,6.9
2023-02-18T13:25:36.211Z,6
2023-02-18T13:26:44.508Z,6
2023-02-18T13:27:52.902Z,6
2023-02-18T13:29:01.466Z,4.2
2023-02-18T13:30:09.953Z,4.2
2023-02-18T13:31:18.315Z,4.2
2023-02-18T13:32:26.782Z,1.6
2023-02-18T13:33:35.178Z,1.6
2023-02-18T13:34:43.505Z,1.6
2023-02-18T13:35:52.094Z,3
2023-02-18T13:37:00.498Z,3
2023-02-18T13:38:08.842Z,3
2023-02-18T13:39:17.427Z,2
2023-02-18T13:40:25.799Z,2
2023-02-18T13:41:34.245Z,2
2023-02-18T13:42:42.745Z,1.5
2023-02-18T13:43:51.113Z,1.5
2023-02-18T13:44:59.535Z,1.5
2023-02-18T13:46:08.091Z,1.1
2023-02-18T13:47:16.480Z,1.1
2023-02-18T13:48:24.838Z,1.1
2023-02-18T13:49:33.436Z,0.9
2023-02-18T13:50:41.829Z,0.9
2023-02-18T13:51:50.156Z,0.9
2023-02-18T13:52:58.696Z,1.4
2023-02-18T13:54:07.053Z,1.4
2023-02-18T13:55:15.400Z,1.4
2023-02-18T13:56:24.010Z,1.3
2023-02-18T13:57:32.394Z,1.3
2023-02-18T13:58:40.772Z,1.3
2023-02-18T13:59:49.350Z,0.9
2023-02-18T14:00:57.778Z,0.9
2023-02-18T14:02:06.128Z,0.9
2023-02-18T14:03:14.737Z,1.5
2023-02-18T14:04:23.072Z,1.5
2023-02-18T14:05:31.412Z,1.5
2023-02-18T14:06:40.005Z,1.2
2023-02-18T14:07:48.357Z,1.2
2023-02-18T14:08:56.749Z,1.2
2023-02-18T14:10:05.329Z,1.2
2023-02-18T14:11:13.741Z,1.2
2023-02-18T14:12:22.079Z,1.2
2023-02-18T14:13:30.698Z,0.8
2023-02-18T14:14:39.059Z,0.8
2023-02-18T14:15:47.513Z,0.8
2023-02-18T14:16:56.061Z,0.9
2023-02-18T14:18:04.420Z,0.9
2023-02-18T14:19:12.815Z,0.9
2023-02-18T14:20:21.353Z,1
2023-02-18T14:21:29.722Z,1
2023-02-18T14:22:38.071Z,1
2023-02-18T14:23:46.629Z,1
2023-02-18T14:24:54.964Z,1
2023-02-18T14:26:03.324Z,1
2023-02-18T14:27:11.900Z,0.9
2023-02-18T14:28:20.244Z,0.9
2023-02-18T14:29:28.636Z,0.9
2023-02-18T15:03:23.003Z,0
2023-02-18T15:04:31.356Z,0
2023-02-18T15:05:39.753Z,0
2023-02-18T15:06:48.326Z,2.6
2023-02-18T15:07:56.670Z,2.6
2023-02-18T15:09:05.070Z,2.6
2023-02-18T15:10:13.587Z,2.3
2023-02-18T15:11:21.942Z,2.3
2023-02-18T15:12:30.315Z,2.3
2023-02-18T15:13:38.887Z,3.4
2023-02-18T15:14:47.229Z,3.4
2023-02-18T15:15:55.618Z,3.4
2023-02-18T15:17:04.168Z,7.8
2023-02-18T15:18:12.539Z,7.8
2023-02-18T15:19:20.957Z,7.8
2023-02-18T15:20:29.491Z,4.4
2023-02-18T15:21:37.974Z,4.4
2023-02-18T15:22:46.302Z,4.4
2023-02-18T15:23:54.930Z,1.8
2023-02-18T15:25:03.276Z,1.8
2023-02-18T15:26:11.867Z,1.8
2023-02-18T15:27:20.212Z,2.3
2023-02-18T15:28:28.563Z,2.3
2023-02-18T15:29:36.919Z,2.3
2023-02-18T15:30:45.490Z,1.9
2023-02-18T15:31:53.918Z,1.9
2023-02-18T15:33:02.209Z,1.9
2023-02-18T15:34:10.739Z,1.3
2023-02-18T15:35:19.137Z,1.3
2023-02-18T15:36:27.455Z,1.3
2023-02-18T15:37:36.010Z,1.2
2023-02-18T15:38:44.356Z,1.2
2023-02-18T15:39:52.750Z,1.2
2023-02-18T15:41:01.344Z,1.2
2023-02-18T15:42:09.701Z,1.2
2023-02-18T15:43:18.036Z,1.2
2023-02-18T15:44:26.592Z,1.2
2023-02-18T15:45:34.942Z,1.2
2023-02-18T15:46:43.366Z,1.2
2023-02-18T15:47:51.871Z,1
2023-02-18T15:49:00.216Z,1
2023-02-18T15:50:08.543Z,1
2023-02-18T15:51:18.012Z,1.1
2023-02-18T15:52:25.451Z,1.1
2023-02-18T15:53:33.811Z,1.1
2023-02-18T15:54:42.394Z,1
2023-02-18T15:55:50.744Z,1
2023-02-18T15:56:59.090Z,1
2023-02-18T15:58:07.656Z,1.2
2023-02-18T15:59:16.000Z,1.2
2023-02-18T16:00:24.509Z,1.2
2023-02-18T16:01:33.013Z,0.9
2023-02-18T16:02:41.317Z,0.9
2023-02-18T16:03:49.663Z,0.9
2023-02-18T16:04:58.263Z,0.9
2023-02-18T16:06:06.617Z,0.9
2023-02-18T16:07:14.991Z,0.9
2023-02-18T16:08:23.534Z,0.8
2023-02-18T16:09:31.876Z,0.8
2023-02-18T16:10:40.249Z,0.8
2023-02-18T16:11:48.808Z,1.2
2023-02-18T16:12:57.145Z,1.2
2023-02-18T16:14:05.485Z,1.2
2023-02-18T16:15:14.029Z,1
2023-02-18T16:16:22.424Z,1
2023-02-18T16:17:30.742Z,1
2023-02-18T16:18:39.292Z,0.6
2023-02-18T16:20:01.803Z,0.6
2023-02-18T16:20:55.978Z,0.6